sensor_id;sensor_type;location;lat;lon;timestamp;P1;durP1;ratioP1;P2;durP2;ratioP2
30571;SDS011;17348;50.948;10.696;2023-12-20T00:02:50;0.57;;;0.07;;
30571;SDS011;17348;50.948;10.696;2023-12-20T00:05:54;0.10;;;0.10;;
30571;SDS011;17348;50.948;10.696;2023-12-20T00:08:57;0.10;;;0.10;;
30571;SDS011;17348;50.948;10.696;2023-12-20T00:11:59;0.20;;;0.10;;
30571;SDS011;17348;50.948;10.696;2023-12-20T00:15:01;0.37;;;0.20;;
30571;SDS011;17348;50.948;10.696;2023-12-20T00:18:04;0.10;;;0.10;;
30571;SDS011;17348;50.948;10.696;2023-12-20T00:21:08;0.33;;;0.20;;
30571;SDS011;17348;50.948;10.696;2023-12-20T00:24:10;0.10;;;0.10;;
30571;SDS011;17348;50.948;10.696;2023-12-20T00:27:12;0.30;;;0.20;;
30571;SDS011;17348;50.948;10.696;2023-12-20T00:30:14;0.27;;;0.10;;
30571;SDS011;17348;50.948;10.696;2023-12-20T00:33:17;0.63;;;0.20;;
30571;SDS011;17348;50.948;10.696;2023-12-20T00:36:20;0.13;;;0.13;;
30571;SDS011;17348;50.948;10.696;2023-12-20T00:39:23;0.23;;;0.23;;
30571;SDS011;17348;50.948;10.696;2023-12-20T00:42:25;0.30;;;0.20;;
30571;SDS011;17348;50.948;10.696;2023-12-20T00:45:32;0.40;;;0.40;;
30571;SDS011;17348;50.948;10.696;2023-12-20T00:48:34;0.00;;;0.00;;
30571;SDS011;17348;50.948;10.696;2023-12-20T00:51:37;0.40;;;0.20;;
30571;SDS011;17348;50.948;10.696;2023-12-20T00:54:40;0.10;;;0.10;;
30571;SDS011;17348;50.948;10.696;2023-12-20T00:57:42;0.27;;;0.20;;
30571;SDS011;17348;50.948;10.696;2023-12-20T01:00:45;0.50;;;0.10;;
30571;SDS011;17348;50.948;10.696;2023-12-20T01:03:47;0.20;;;0.20;;
30571;SDS011;17348;50.948;10.696;2023-12-20T01:06:53;0.20;;;0.20;;
30571;SDS011;17348;50.948;10.696;2023-12-20T01:09:55;0.10;;;0.10;;
30571;SDS011;17348;50.948;10.696;2023-12-20T01:12:57;0.10;;;0.10;;
30571;SDS011;17348;50.948;10.696;2023-12-20T01:16:00;0.43;;;0.30;;
30571;SDS011;17348;50.948;10.696;2023-12-20T01:19:04;0.10;;;0.10;;
30571;SDS011;17348;50.948;10.696;2023-12-20T01:22:08;0.10;;;0.07;;
30571;SDS011;17348;50.948;10.696;2023-12-20T01:25:11;0.10;;;0.10;;
30571;SDS011;17348;50.948;10.696;2023-12-20T01:28:13;0.23;;;0.20;;
30571;SDS011;17348;50.948;10.696;2023-12-20T01:31:16;0.20;;;0.10;;
30571;SDS011;17348;50.948;10.696;2023-12-20T01:34:18;0.37;;;0.20;;
30571;SDS011;17348;50.948;10.696;2023-12-20T01:37:22;0.10;;;0.10;;
30571;SDS011;17348;50.948;10.696;2023-12-20T01:40:26;0.33;;;0.23;;
30571;SDS011;17348;50.948;10.696;2023-12-20T01:43:31;0.30;;;0.10;;
30571;SDS011;17348;50.948;10.696;2023-12-20T01:46:33;0.43;;;0.10;;
30571;SDS011;17348;50.948;10.696;2023-12-20T01:49:36;0.10;;;0.10;;
30571;SDS011;17348;50.948;10.696;2023-12-20T01:52:41;0.47;;;0.10;;
30571;SDS011;17348;50.948;10.696;2023-12-20T01:55:43;0.30;;;0.20;;
30571;SDS011;17348;50.948;10.696;2023-12-20T01:58:46;0.13;;;0.10;;
30571;SDS011;17348;50.948;10.696;2023-12-20T02:01:49;0.10;;;0.10;;
30571;SDS011;17348;50.948;10.696;2023-12-20T02:04:52;0.27;;;0.10;;
30571;SDS011;17348;50.948;10.696;2023-12-20T02:07:56;1.30;;;0.20;;
30571;SDS011;17348;50.948;10.696;2023-12-20T02:10:58;2.43;;;0.20;;
30571;SDS011;17348;50.948;10.696;2023-12-20T02:14:01;0.20;;;0.20;;
30571;SDS011;17348;50.948;10.696;2023-12-20T02:17:03;0.40;;;0.10;;
30571;SDS011;17348;50.948;10.696;2023-12-20T02:20:06;1.90;;;0.20;;
30571;SDS011;17348;50.948;10.696;2023-12-20T02:23:10;0.47;;;0.20;;
30571;SDS011;17348;50.948;10.696;2023-12-20T02:26:12;0.10;;;0.10;;
30571;SDS011;17348;50.948;10.696;2023-12-20T02:29:15;0.10;;;0.10;;
30571;SDS011;17348;50.948;10.696;2023-12-20T02:32:17;0.00;;;0.00;;
30571;SDS011;17348;50.948;10.696;2023-12-20T02:35:20;2.10;;;0.27;;
30571;SDS011;17348;50.948;10.696;2023-12-20T02:38:24;0.20;;;0.20;;
30571;SDS011;17348;50.948;10.696;2023-12-20T02:41:26;0.63;;;0.20;;
30571;SDS011;17348;50.948;10.696;2023-12-20T02:44:28;0.30;;;0.20;;
30571;SDS011;17348;50.948;10.696;2023-12-20T02:47:31;0.17;;;0.17;;
30571;SDS011;17348;50.948;10.696;2023-12-20T02:50:33;0.10;;;0.10;;
30571;SDS011;17348;50.948;10.696;2023-12-20T02:53:38;0.30;;;0.13;;
30571;SDS011;17348;50.948;10.696;2023-12-20T02:56:41;0.60;;;0.17;;
30571;SDS011;17348;50.948;10.696;2023-12-20T02:59:43;0.50;;;0.30;;
30571;SDS011;17348;50.948;10.696;2023-12-20T03:02:46;0.27;;;0.20;;
30571;SDS011;17348;50.948;10.696;2023-12-20T03:05:49;0.20;;;0.20;;
30571;SDS011;17348;50.948;10.696;2023-12-20T03:08:52;0.33;;;0.27;;
30571;SDS011;17348;50.948;10.696;2023-12-20T03:11:55;0.30;;;0.27;;
30571;SDS011;17348;50.948;10.696;2023-12-20T03:14:57;0.83;;;0.30;;
30571;SDS011;17348;50.948;10.696;2023-12-20T03:17:59;1.07;;;0.20;;
30571;SDS011;17348;50.948;10.696;2023-12-20T03:21:02;0.27;;;0.17;;
30571;SDS011;17348;50.948;10.696;2023-12-20T03:24:06;0.20;;;0.20;;
30571;SDS011;17348;50.948;10.696;2023-12-20T03:27:08;0.20;;;0.10;;
30571;SDS011;17348;50.948;10.696;2023-12-20T03:30:11;0.30;;;0.20;;
30571;SDS011;17348;50.948;10.696;2023-12-20T03:33:13;0.17;;;0.10;;
30571;SDS011;17348;50.948;10.696;2023-12-20T03:36:15;0.50;;;0.40;;
30571;SDS011;17348;50.948;10.696;2023-12-20T03:39:21;0.20;;;0.20;;
30571;SDS011;17348;50.948;10.696;2023-12-20T03:42:24;0.20;;;0.20;;
30571;SDS011;17348;50.948;10.696;2023-12-20T03:45:26;0.20;;;0.20;;
30571;SDS011;17348;50.948;10.696;2023-12-20T03:48:28;0.30;;;0.30;;
30571;SDS011;17348;50.948;10.696;2023-12-20T03:51:31;0.57;;;0.40;;
30571;SDS011;17348;50.948;10.696;2023-12-20T03:54:34;0.40;;;0.40;;
30571;SDS011;17348;50.948;10.696;2023-12-20T03:57:37;0.63;;;0.50;;
30571;SDS011;17348;50.948;10.696;2023-12-20T04:00:39;0.40;;;0.40;;
30571;SDS011;17348;50.948;10.696;2023-12-20T04:03:41;0.30;;;0.30;;
30571;SDS011;17348;50.948;10.696;2023-12-20T04:06:44;2.20;;;0.60;;
30571;SDS011;17348;50.948;10.696;2023-12-20T04:09:47;0.40;;;0.40;;
30571;SDS011;17348;50.948;10.696;2023-12-20T04:12:50;1.53;;;0.97;;
30571;SDS011;17348;50.948;10.696;2023-12-20T04:15:52;0.53;;;0.53;;
30571;SDS011;17348;50.948;10.696;2023-12-20T04:18:54;0.93;;;0.77;;
30571;SDS011;17348;50.948;10.696;2023-12-20T04:21:56;1.50;;;1.00;;
30571;SDS011;17348;50.948;10.696;2023-12-20T04:25:00;0.70;;;0.70;;
30571;SDS011;17348;50.948;10.696;2023-12-20T04:28:03;1.00;;;0.83;;
30571;SDS011;17348;50.948;10.696;2023-12-20T04:31:06;2.30;;;1.27;;
30571;SDS011;17348;50.948;10.696;2023-12-20T04:34:08;1.73;;;1.10;;
30571;SDS011;17348;50.948;10.696;2023-12-20T04:37:10;1.33;;;1.23;;
30571;SDS011;17348;50.948;10.696;2023-12-20T04:40:14;1.00;;;0.80;;
30571;SDS011;17348;50.948;10.696;2023-12-20T04:43:17;0.77;;;0.60;;
30571;SDS011;17348;50.948;10.696;2023-12-20T04:46:19;0.97;;;0.70;;
30571;SDS011;17348;50.948;10.696;2023-12-20T04:49:21;1.20;;;0.77;;
30571;SDS011;17348;50.948;10.696;2023-12-20T04:52:24;1.07;;;0.73;;
30571;SDS011;17348;50.948;10.696;2023-12-20T04:55:28;1.50;;;1.10;;
30571;SDS011;17348;50.948;10.696;2023-12-20T04:58:31;0.63;;;0.60;;
30571;SDS011;17348;50.948;10.696;2023-12-20T05:01:33;1.93;;;1.17;;
30571;SDS011;17348;50.948;10.696;2023-12-20T05:04:36;0.70;;;0.70;;
30571;SDS011;17348;50.948;10.696;2023-12-20T05:07:39;0.60;;;0.50;;
30571;SDS011;17348;50.948;10.696;2023-12-20T05:10:42;0.83;;;0.80;;
30571;SDS011;17348;50.948;10.696;2023-12-20T05:13:45;2.87;;;1.20;;
30571;SDS011;17348;50.948;10.696;2023-12-20T05:16:47;1.30;;;1.10;;
30571;SDS011;17348;50.948;10.696;2023-12-20T05:19:49;2.80;;;1.00;;
30571;SDS011;17348;50.948;10.696;2023-12-20T05:22:52;3.57;;;1.60;;
30571;SDS011;17348;50.948;10.696;2023-12-20T05:25:55;2.10;;;1.37;;
30571;SDS011;17348;50.948;10.696;2023-12-20T05:28:59;6.10;;;1.23;;
30571;SDS011;17348;50.948;10.696;2023-12-20T05:32:01;3.87;;;1.67;;
30571;SDS011;17348;50.948;10.696;2023-12-20T05:35:05;8.97;;;1.90;;
30571;SDS011;17348;50.948;10.696;2023-12-20T05:38:07;2.20;;;1.40;;
30571;SDS011;17348;50.948;10.696;2023-12-20T05:41:11;4.07;;;1.97;;
30571;SDS011;17348;50.948;10.696;2023-12-20T05:44:14;2.67;;;1.60;;
30571;SDS011;17348;50.948;10.696;2023-12-20T05:47:16;2.90;;;1.40;;
30571;SDS011;17348;50.948;10.696;2023-12-20T05:50:18;5.20;;;1.47;;
30571;SDS011;17348;50.948;10.696;2023-12-20T05:53:21;2.20;;;1.10;;
30571;SDS011;17348;50.948;10.696;2023-12-20T05:56:25;3.07;;;1.80;;
30571;SDS011;17348;50.948;10.696;2023-12-20T05:59:28;6.57;;;1.70;;
30571;SDS011;17348;50.948;10.696;2023-12-20T06:02:30;7.07;;;2.00;;
30571;SDS011;17348;50.948;10.696;2023-12-20T06:05:33;4.83;;;2.53;;
30571;SDS011;17348;50.948;10.696;2023-12-20T06:08:35;4.77;;;2.47;;
30571;SDS011;17348;50.948;10.696;2023-12-20T06:11:40;4.10;;;2.37;;
30571;SDS011;17348;50.948;10.696;2023-12-20T06:14:44;6.80;;;2.77;;
30571;SDS011;17348;50.948;10.696;2023-12-20T06:17:46;4.83;;;2.20;;
30571;SDS011;17348;50.948;10.696;2023-12-20T06:20:48;7.90;;;2.77;;
30571;SDS011;17348;50.948;10.696;2023-12-20T06:23:51;6.60;;;2.27;;
30571;SDS011;17348;50.948;10.696;2023-12-20T06:26:54;5.60;;;2.20;;
30571;SDS011;17348;50.948;10.696;2023-12-20T06:29:57;18.87;;;2.93;;
30571;SDS011;17348;50.948;10.696;2023-12-20T06:32:59;11.43;;;2.83;;
30571;SDS011;17348;50.948;10.696;2023-12-20T06:36:02;5.30;;;2.37;;
30571;SDS011;17348;50.948;10.696;2023-12-20T06:39:04;5.13;;;1.90;;
30571;SDS011;17348;50.948;10.696;2023-12-20T06:42:08;6.70;;;2.00;;
30571;SDS011;17348;50.948;10.696;2023-12-20T06:45:10;4.00;;;1.83;;
30571;SDS011;17348;50.948;10.696;2023-12-20T06:48:13;4.33;;;2.17;;
30571;SDS011;17348;50.948;10.696;2023-12-20T06:51:16;3.07;;;1.80;;
30571;SDS011;17348;50.948;10.696;2023-12-20T06:54:20;3.90;;;2.00;;
30571;SDS011;17348;50.948;10.696;2023-12-20T06:57:24;3.23;;;1.60;;
30571;SDS011;17348;50.948;10.696;2023-12-20T07:00:26;3.97;;;1.90;;
30571;SDS011;17348;50.948;10.696;2023-12-20T07:03:28;6.03;;;1.60;;
30571;SDS011;17348;50.948;10.696;2023-12-20T07:06:31;3.87;;;1.70;;
30571;SDS011;17348;50.948;10.696;2023-12-20T07:09:33;2.67;;;1.83;;
30571;SDS011;17348;50.948;10.696;2023-12-20T07:12:37;14.07;;;2.00;;
30571;SDS011;17348;50.948;10.696;2023-12-20T07:15:42;5.07;;;1.90;;
30571;SDS011;17348;50.948;10.696;2023-12-20T07:18:44;7.73;;;2.07;;
30571;SDS011;17348;50.948;10.696;2023-12-20T07:21:47;4.70;;;1.77;;
30571;SDS011;17348;50.948;10.696;2023-12-20T07:24:49;4.97;;;2.10;;
30571;SDS011;17348;50.948;10.696;2023-12-20T07:27:54;6.20;;;2.10;;
30571;SDS011;17348;50.948;10.696;2023-12-20T07:30:56;8.43;;;1.90;;
30571;SDS011;17348;50.948;10.696;2023-12-20T07:33:58;5.00;;;2.43;;
30571;SDS011;17348;50.948;10.696;2023-12-20T07:37:04;11.57;;;3.03;;
30571;SDS011;17348;50.948;10.696;2023-12-20T07:40:06;10.90;;;3.27;;
30571;SDS011;17348;50.948;10.696;2023-12-20T07:43:11;3.77;;;2.53;;
30571;SDS011;17348;50.948;10.696;2023-12-20T07:46:13;5.00;;;2.40;;
30571;SDS011;17348;50.948;10.696;2023-12-20T07:49:15;6.73;;;2.87;;
30571;SDS011;17348;50.948;10.696;2023-12-20T07:52:17;7.57;;;2.80;;
30571;SDS011;17348;50.948;10.696;2023-12-20T07:55:20;11.63;;;2.97;;
30571;SDS011;17348;50.948;10.696;2023-12-20T07:58:24;6.97;;;3.00;;
30571;SDS011;17348;50.948;10.696;2023-12-20T08:01:27;5.47;;;3.00;;
30571;SDS011;17348;50.948;10.696;2023-12-20T08:04:29;7.10;;;2.93;;
30571;SDS011;17348;50.948;10.696;2023-12-20T08:07:31;6.00;;;2.90;;
30571;SDS011;17348;50.948;10.696;2023-12-20T08:10:34;8.50;;;2.90;;
30571;SDS011;17348;50.948;10.696;2023-12-20T08:13:38;6.90;;;2.30;;
30571;SDS011;17348;50.948;10.696;2023-12-20T08:16:43;7.57;;;2.63;;
30571;SDS011;17348;50.948;10.696;2023-12-20T08:19:46;3.90;;;1.67;;
30571;SDS011;17348;50.948;10.696;2023-12-20T08:22:48;4.33;;;1.57;;
30571;SDS011;17348;50.948;10.696;2023-12-20T08:25:51;9.00;;;2.03;;
30571;SDS011;17348;50.948;10.696;2023-12-20T08:28:54;6.53;;;1.60;;
30571;SDS011;17348;50.948;10.696;2023-12-20T08:31:56;17.47;;;1.90;;
30571;SDS011;17348;50.948;10.696;2023-12-20T08:34:59;10.27;;;2.33;;
30571;SDS011;17348;50.948;10.696;2023-12-20T08:38:01;5.70;;;2.20;;
30571;SDS011;17348;50.948;10.696;2023-12-20T08:41:04;7.00;;;2.00;;
30571;SDS011;17348;50.948;10.696;2023-12-20T08:44:10;5.40;;;2.17;;
30571;SDS011;17348;50.948;10.696;2023-12-20T08:47:12;9.03;;;2.00;;
30571;SDS011;17348;50.948;10.696;2023-12-20T08:50:16;4.63;;;2.00;;
30571;SDS011;17348;50.948;10.696;2023-12-20T08:53:18;14.17;;;1.93;;
30571;SDS011;17348;50.948;10.696;2023-12-20T08:56:21;6.13;;;1.90;;
30571;SDS011;17348;50.948;10.696;2023-12-20T08:59:25;3.40;;;1.73;;
30571;SDS011;17348;50.948;10.696;2023-12-20T09:02:28;5.37;;;1.93;;
30571;SDS011;17348;50.948;10.696;2023-12-20T09:05:30;8.33;;;1.97;;
30571;SDS011;17348;50.948;10.696;2023-12-20T09:08:33;7.23;;;1.43;;
30571;SDS011;17348;50.948;10.696;2023-12-20T09:11:35;5.83;;;2.50;;
30571;SDS011;17348;50.948;10.696;2023-12-20T09:14:39;8.60;;;1.97;;
30571;SDS011;17348;50.948;10.696;2023-12-20T09:17:41;7.47;;;1.67;;
30571;SDS011;17348;50.948;10.696;2023-12-20T09:20:44;7.27;;;1.77;;
30571;SDS011;17348;50.948;10.696;2023-12-20T09:23:46;10.93;;;2.57;;
30571;SDS011;17348;50.948;10.696;2023-12-20T09:26:51;5.40;;;2.10;;
30571;SDS011;17348;50.948;10.696;2023-12-20T09:29:55;9.17;;;1.70;;
30571;SDS011;17348;50.948;10.696;2023-12-20T09:32:57;13.33;;;2.50;;
30571;SDS011;17348;50.948;10.696;2023-12-20T09:35:59;6.20;;;1.70;;
30571;SDS011;17348;50.948;10.696;2023-12-20T09:39:02;11.67;;;2.20;;
30571;SDS011;17348;50.948;10.696;2023-12-20T09:42:05;10.63;;;1.90;;
30571;SDS011;17348;50.948;10.696;2023-12-20T09:45:09;8.43;;;1.73;;
30571;SDS011;17348;50.948;10.696;2023-12-20T09:48:16;10.73;;;1.90;;
30571;SDS011;17348;50.948;10.696;2023-12-20T09:51:19;12.77;;;1.73;;
30571;SDS011;17348;50.948;10.696;2023-12-20T09:54:25;14.73;;;1.90;;
30571;SDS011;17348;50.948;10.696;2023-12-20T09:57:28;8.50;;;1.63;;
30571;SDS011;17348;50.948;10.696;2023-12-20T10:00:35;3.67;;;1.60;;
30571;SDS011;17348;50.948;10.696;2023-12-20T10:03:37;10.97;;;1.77;;
30571;SDS011;17348;50.948;10.696;2023-12-20T10:06:42;4.23;;;1.83;;
30571;SDS011;17348;50.948;10.696;2023-12-20T10:09:44;9.07;;;1.90;;
30571;SDS011;17348;50.948;10.696;2023-12-20T10:13:00;6.30;;;1.17;;
30571;SDS011;17348;50.948;10.696;2023-12-20T10:16:05;8.57;;;1.53;;
30571;SDS011;17348;50.948;10.696;2023-12-20T10:19:08;6.13;;;1.40;;
30571;SDS011;17348;50.948;10.696;2023-12-20T10:22:10;3.10;;;1.60;;
30571;SDS011;17348;50.948;10.696;2023-12-20T10:25:12;4.07;;;1.40;;
30571;SDS011;17348;50.948;10.696;2023-12-20T10:28:18;4.97;;;1.47;;
30571;SDS011;17348;50.948;10.696;2023-12-20T10:31:27;11.37;;;1.60;;
30571;SDS011;17348;50.948;10.696;2023-12-20T10:34:32;6.70;;;1.90;;
30571;SDS011;17348;50.948;10.696;2023-12-20T10:37:35;7.40;;;1.67;;
30571;SDS011;17348;50.948;10.696;2023-12-20T10:40:37;7.10;;;2.50;;
30571;SDS011;17348;50.948;10.696;2023-12-20T10:43:39;3.37;;;1.03;;
30571;SDS011;17348;50.948;10.696;2023-12-20T10:46:44;10.93;;;3.73;;
30571;SDS011;17348;50.948;10.696;2023-12-20T10:49:51;11.30;;;2.43;;
30571;SDS011;17348;50.948;10.696;2023-12-20T10:52:54;3.37;;;1.37;;
30571;SDS011;17348;50.948;10.696;2023-12-20T10:55:57;7.17;;;1.60;;
30571;SDS011;17348;50.948;10.696;2023-12-20T10:59:02;4.03;;;1.90;;
30571;SDS011;17348;50.948;10.696;2023-12-20T11:02:07;11.97;;;2.27;;
30571;SDS011;17348;50.948;10.696;2023-12-20T11:05:14;6.10;;;1.70;;
30571;SDS011;17348;50.948;10.696;2023-12-20T11:08:35;4.57;;;2.03;;
30571;SDS011;17348;50.948;10.696;2023-12-20T11:11:44;10.63;;;1.70;;
30571;SDS011;17348;50.948;10.696;2023-12-20T11:14:59;14.07;;;2.17;;
30571;SDS011;17348;50.948;10.696;2023-12-20T11:18:06;4.17;;;1.63;;
30571;SDS011;17348;50.948;10.696;2023-12-20T11:21:08;7.77;;;1.73;;
30571;SDS011;17348;50.948;10.696;2023-12-20T11:24:12;8.43;;;1.60;;
30571;SDS011;17348;50.948;10.696;2023-12-20T11:27:14;9.10;;;1.63;;
30571;SDS011;17348;50.948;10.696;2023-12-20T11:30:17;6.03;;;2.00;;
30571;SDS011;17348;50.948;10.696;2023-12-20T11:33:23;13.80;;;3.93;;
30571;SDS011;17348;50.948;10.696;2023-12-20T11:36:27;8.50;;;2.43;;
30571;SDS011;17348;50.948;10.696;2023-12-20T11:39:34;6.20;;;1.83;;
30571;SDS011;17348;50.948;10.696;2023-12-20T11:42:37;4.23;;;1.80;;
30571;SDS011;17348;50.948;10.696;2023-12-20T11:45:47;6.40;;;1.67;;
30571;SDS011;17348;50.948;10.696;2023-12-20T11:48:54;3.17;;;1.50;;
30571;SDS011;17348;50.948;10.696;2023-12-20T11:51:56;5.10;;;1.50;;
30571;SDS011;17348;50.948;10.696;2023-12-20T11:55:00;8.37;;;2.00;;
30571;SDS011;17348;50.948;10.696;2023-12-20T11:58:04;6.70;;;2.03;;
30571;SDS011;17348;50.948;10.696;2023-12-20T12:01:06;9.27;;;2.23;;
30571;SDS011;17348;50.948;10.696;2023-12-20T12:04:10;5.70;;;2.10;;
30571;SDS011;17348;50.948;10.696;2023-12-20T12:07:12;11.40;;;2.00;;
30571;SDS011;17348;50.948;10.696;2023-12-20T12:10:15;10.57;;;1.57;;
30571;SDS011;17348;50.948;10.696;2023-12-20T12:13:17;5.27;;;1.67;;
30571;SDS011;17348;50.948;10.696;2023-12-20T12:16:20;4.13;;;1.70;;
30571;SDS011;17348;50.948;10.696;2023-12-20T12:19:24;4.23;;;1.77;;
30571;SDS011;17348;50.948;10.696;2023-12-20T12:22:27;6.37;;;1.73;;
30571;SDS011;17348;50.948;10.696;2023-12-20T12:25:31;5.83;;;2.57;;
30571;SDS011;17348;50.948;10.696;2023-12-20T12:28:36;5.23;;;1.97;;
30571;SDS011;17348;50.948;10.696;2023-12-20T12:31:41;6.10;;;1.30;;
30571;SDS011;17348;50.948;10.696;2023-12-20T12:34:45;6.30;;;1.17;;
30571;SDS011;17348;50.948;10.696;2023-12-20T12:37:47;6.70;;;1.20;;
30571;SDS011;17348;50.948;10.696;2023-12-20T12:40:49;7.40;;;2.60;;
30571;SDS011;17348;50.948;10.696;2023-12-20T12:43:53;7.87;;;3.20;;
30571;SDS011;17348;50.948;10.696;2023-12-20T12:46:56;11.77;;;4.70;;
30571;SDS011;17348;50.948;10.696;2023-12-20T12:49:59;5.53;;;2.20;;
30571;SDS011;17348;50.948;10.696;2023-12-20T12:53:02;4.00;;;1.43;;
30571;SDS011;17348;50.948;10.696;2023-12-20T12:56:08;10.40;;;2.10;;
30571;SDS011;17348;50.948;10.696;2023-12-20T12:59:10;4.07;;;1.50;;
30571;SDS011;17348;50.948;10.696;2023-12-20T13:02:13;2.23;;;1.30;;
30571;SDS011;17348;50.948;10.696;2023-12-20T13:05:17;6.67;;;1.40;;
30571;SDS011;17348;50.948;10.696;2023-12-20T13:08:20;3.67;;;1.20;;
30571;SDS011;17348;50.948;10.696;2023-12-20T13:11:22;4.83;;;1.23;;
30571;SDS011;17348;50.948;10.696;2023-12-20T13:14:25;4.90;;;1.60;;
30571;SDS011;17348;50.948;10.696;2023-12-20T13:17:28;9.63;;;1.50;;
30571;SDS011;17348;50.948;10.696;2023-12-20T13:20:31;5.07;;;1.13;;
30571;SDS011;17348;50.948;10.696;2023-12-20T13:23:34;10.13;;;2.73;;
30571;SDS011;17348;50.948;10.696;2023-12-20T13:26:36;7.27;;;2.40;;
30571;SDS011;17348;50.948;10.696;2023-12-20T13:29:39;5.00;;;1.27;;
30571;SDS011;17348;50.948;10.696;2023-12-20T13:32:41;6.80;;;1.60;;
30571;SDS011;17348;50.948;10.696;2023-12-20T13:35:46;4.70;;;2.20;;
30571;SDS011;17348;50.948;10.696;2023-12-20T13:38:48;8.70;;;1.40;;
30571;SDS011;17348;50.948;10.696;2023-12-20T13:41:53;5.20;;;1.30;;
30571;SDS011;17348;50.948;10.696;2023-12-20T13:44:55;5.53;;;1.03;;
30571;SDS011;17348;50.948;10.696;2023-12-20T13:47:58;1.83;;;1.07;;
30571;SDS011;17348;50.948;10.696;2023-12-20T13:51:01;4.37;;;1.37;;
30571;SDS011;17348;50.948;10.696;2023-12-20T13:54:06;8.40;;;1.83;;
30571;SDS011;17348;50.948;10.696;2023-12-20T13:57:11;5.00;;;1.60;;
30571;SDS011;17348;50.948;10.696;2023-12-20T14:00:14;6.37;;;2.00;;
30571;SDS011;17348;50.948;10.696;2023-12-20T14:03:16;5.93;;;1.23;;
30571;SDS011;17348;50.948;10.696;2023-12-20T14:06:21;5.40;;;1.40;;
30571;SDS011;17348;50.948;10.696;2023-12-20T14:09:24;6.17;;;0.93;;
30571;SDS011;17348;50.948;10.696;2023-12-20T14:12:26;1.63;;;0.80;;
30571;SDS011;17348;50.948;10.696;2023-12-20T14:15:28;3.90;;;0.80;;
30571;SDS011;17348;50.948;10.696;2023-12-20T14:18:31;9.13;;;1.60;;
30571;SDS011;17348;50.948;10.696;2023-12-20T14:21:34;1.73;;;0.70;;
30571;SDS011;17348;50.948;10.696;2023-12-20T14:24:37;3.77;;;1.17;;
30571;SDS011;17348;50.948;10.696;2023-12-20T14:27:39;3.73;;;0.87;;
30571;SDS011;17348;50.948;10.696;2023-12-20T14:30:44;7.83;;;0.90;;
30571;SDS011;17348;50.948;10.696;2023-12-20T14:33:46;7.57;;;1.00;;
30571;SDS011;17348;50.948;10.696;2023-12-20T14:36:53;4.93;;;1.07;;
30571;SDS011;17348;50.948;10.696;2023-12-20T14:39:57;3.20;;;0.90;;
30571;SDS011;17348;50.948;10.696;2023-12-20T14:42:59;5.37;;;0.73;;
30571;SDS011;17348;50.948;10.696;2023-12-20T14:46:04;5.83;;;1.43;;
30571;SDS011;17348;50.948;10.696;2023-12-20T14:49:07;5.93;;;0.87;;
30571;SDS011;17348;50.948;10.696;2023-12-20T14:52:10;1.03;;;0.60;;
30571;SDS011;17348;50.948;10.696;2023-12-20T14:55:13;2.97;;;0.80;;
30571;SDS011;17348;50.948;10.696;2023-12-20T14:58:16;5.07;;;1.10;;
30571;SDS011;17348;50.948;10.696;2023-12-20T15:01:18;5.00;;;1.00;;
30571;SDS011;17348;50.948;10.696;2023-12-20T15:04:22;5.33;;;0.73;;
30571;SDS011;17348;50.948;10.696;2023-12-20T15:07:30;3.57;;;1.00;;
30571;SDS011;17348;50.948;10.696;2023-12-20T15:10:32;1.37;;;0.70;;
30571;SDS011;17348;50.948;10.696;2023-12-20T15:13:35;5.90;;;1.20;;
30571;SDS011;17348;50.948;10.696;2023-12-20T15:16:37;5.57;;;1.07;;
30571;SDS011;17348;50.948;10.696;2023-12-20T15:19:39;5.80;;;1.60;;
30571;SDS011;17348;50.948;10.696;2023-12-20T15:22:44;4.50;;;1.03;;
30571;SDS011;17348;50.948;10.696;2023-12-20T15:25:47;2.40;;;1.20;;
30571;SDS011;17348;50.948;10.696;2023-12-20T15:28:49;14.13;;;4.53;;
30571;SDS011;17348;50.948;10.696;2023-12-20T15:31:51;4.10;;;2.57;;
30571;SDS011;17348;50.948;10.696;2023-12-20T15:34:54;4.37;;;1.80;;
30571;SDS011;17348;50.948;10.696;2023-12-20T15:37:58;5.97;;;2.23;;
30571;SDS011;17348;50.948;10.696;2023-12-20T15:41:00;8.80;;;1.80;;
30571;SDS011;17348;50.948;10.696;2023-12-20T15:44:03;7.33;;;1.77;;
30571;SDS011;17348;50.948;10.696;2023-12-20T15:47:06;6.67;;;1.47;;
30571;SDS011;17348;50.948;10.696;2023-12-20T15:50:08;4.13;;;1.47;;
30571;SDS011;17348;50.948;10.696;2023-12-20T15:53:17;5.40;;;1.03;;
30571;SDS011;17348;50.948;10.696;2023-12-20T15:56:19;4.03;;;1.30;;
30571;SDS011;17348;50.948;10.696;2023-12-20T15:59:22;3.60;;;0.63;;
30571;SDS011;17348;50.948;10.696;2023-12-20T16:02:24;1.80;;;1.20;;
30571;SDS011;17348;50.948;10.696;2023-12-20T16:05:30;5.10;;;1.83;;
30571;SDS011;17348;50.948;10.696;2023-12-20T16:08:34;3.43;;;1.33;;
30571;SDS011;17348;50.948;10.696;2023-12-20T16:11:36;2.77;;;1.37;;
30571;SDS011;17348;50.948;10.696;2023-12-20T16:14:40;6.17;;;1.47;;
30571;SDS011;17348;50.948;10.696;2023-12-20T16:17:42;3.80;;;1.97;;
30571;SDS011;17348;50.948;10.696;2023-12-20T16:20:44;16.60;;;3.10;;
30571;SDS011;17348;50.948;10.696;2023-12-20T16:23:48;4.20;;;1.50;;
30571;SDS011;17348;50.948;10.696;2023-12-20T16:26:50;5.70;;;1.60;;
30571;SDS011;17348;50.948;10.696;2023-12-20T16:29:53;12.67;;;1.60;;
30571;SDS011;17348;50.948;10.696;2023-12-20T16:32:55;6.93;;;1.97;;
30571;SDS011;17348;50.948;10.696;2023-12-20T16:35:57;4.20;;;2.17;;
30571;SDS011;17348;50.948;10.696;2023-12-20T16:39:04;7.80;;;2.10;;
30571;SDS011;17348;50.948;10.696;2023-12-20T16:42:09;10.57;;;2.47;;
30571;SDS011;17348;50.948;10.696;2023-12-20T16:45:12;8.63;;;2.90;;
30571;SDS011;17348;50.948;10.696;2023-12-20T16:48:14;7.13;;;1.93;;
30571;SDS011;17348;50.948;10.696;2023-12-20T16:51:19;8.83;;;2.33;;
30571;SDS011;17348;50.948;10.696;2023-12-20T16:54:24;5.03;;;1.83;;
30571;SDS011;17348;50.948;10.696;2023-12-20T16:57:26;5.60;;;2.10;;
30571;SDS011;17348;50.948;10.696;2023-12-20T17:00:29;6.00;;;1.93;;
30571;SDS011;17348;50.948;10.696;2023-12-20T17:03:31;12.13;;;2.80;;
30571;SDS011;17348;50.948;10.696;2023-12-20T17:06:34;9.30;;;2.03;;
30571;SDS011;17348;50.948;10.696;2023-12-20T17:09:37;5.83;;;2.00;;
30571;SDS011;17348;50.948;10.696;2023-12-20T17:12:40;13.43;;;2.60;;
30571;SDS011;17348;50.948;10.696;2023-12-20T17:15:43;8.63;;;2.30;;
30571;SDS011;17348;50.948;10.696;2023-12-20T17:18:45;4.13;;;1.87;;
30571;SDS011;17348;50.948;10.696;2023-12-20T17:21:49;7.67;;;1.90;;
30571;SDS011;17348;50.948;10.696;2023-12-20T17:24:53;4.10;;;1.77;;
30571;SDS011;17348;50.948;10.696;2023-12-20T17:27:56;2.53;;;1.40;;
30571;SDS011;17348;50.948;10.696;2023-12-20T17:30:59;5.60;;;2.30;;
30571;SDS011;17348;50.948;10.696;2023-12-20T17:34:01;3.50;;;2.10;;
30571;SDS011;17348;50.948;10.696;2023-12-20T17:37:04;11.70;;;3.87;;
30571;SDS011;17348;50.948;10.696;2023-12-20T17:40:08;3.97;;;1.70;;
30571;SDS011;17348;50.948;10.696;2023-12-20T17:43:13;6.63;;;1.70;;
30571;SDS011;17348;50.948;10.696;2023-12-20T17:46:16;5.80;;;1.87;;
30571;SDS011;17348;50.948;10.696;2023-12-20T17:49:19;6.17;;;1.83;;
30571;SDS011;17348;50.948;10.696;2023-12-20T17:52:21;3.87;;;1.80;;
30571;SDS011;17348;50.948;10.696;2023-12-20T17:55:25;2.20;;;1.63;;
30571;SDS011;17348;50.948;10.696;2023-12-20T17:58:28;5.40;;;1.60;;
30571;SDS011;17348;50.948;10.696;2023-12-20T18:01:30;10.13;;;1.67;;
30571;SDS011;17348;50.948;10.696;2023-12-20T18:04:32;4.07;;;1.77;;
30571;SDS011;17348;50.948;10.696;2023-12-20T18:07:34;7.80;;;2.53;;